createdAt,value
2022-10-10T00:02:03.842Z,0
2022-10-10T00:08:23.851Z,0
2022-10-10T00:14:46.790Z,0
2022-10-10T00:21:06.769Z,0
2022-10-10T00:27:29.774Z,0
2022-10-10T00:33:49.757Z,0
2022-10-10T00:40:12.883Z,0
2022-10-10T00:46:32.743Z,0
2022-10-10T00:52:55.810Z,0
2022-10-10T00:59:15.759Z,0
2022-10-10T01:05:38.840Z,0
2022-10-10T01:11:58.847Z,0
2022-10-10T01:18:21.792Z,0
2022-10-10T01:24:41.765Z,0
2022-10-10T01:31:04.783Z,0
2022-10-10T01:37:24.765Z,0
2022-10-10T01:43:47.771Z,0
2022-10-10T01:50:07.815Z,0
2022-10-10T01:56:30.758Z,0
2022-10-10T02:02:51.025Z,0
2022-10-10T02:09:13.831Z,0
2022-10-10T02:15:33.873Z,0
2022-10-10T02:21:56.864Z,0
2022-10-10T02:28:16.870Z,0
2022-10-10T02:34:39.772Z,0
2022-10-10T02:40:59.771Z,0
2022-10-10T02:47:22.831Z,0
2022-10-10T02:53:42.847Z,0
2022-10-10T03:00:05.839Z,0
2022-10-10T03:06:25.789Z,0
2022-10-10T03:12:49.090Z,0
2022-10-10T03:30:00.137Z,0
2022-10-10T03:36:22.738Z,0
2022-10-10T03:42:42.792Z,0
2022-10-10T03:49:05.888Z,0
2022-10-10T03:55:25.828Z,0
2022-10-10T04:01:48.827Z,0
2022-10-10T04:08:08.808Z,0
2022-10-10T04:14:31.808Z,0
2022-10-10T04:20:51.765Z,0
2022-10-10T04:27:14.767Z,0
2022-10-10T04:33:34.784Z,0
2022-10-10T04:39:57.814Z,0
2022-10-10T04:46:17.857Z,0
2022-10-10T04:52:40.725Z,0
2022-10-10T04:59:00.746Z,0
2022-10-10T05:05:23.859Z,0
2022-10-10T05:11:43.767Z,0
2022-10-10T05:18:06.832Z,0
2022-10-10T05:24:26.745Z,0
2022-10-10T05:30:49.797Z,0
2022-10-10T05:37:09.819Z,0
2022-10-10T05:43:32.886Z,0
2022-10-10T05:49:52.803Z,0
2022-10-10T05:56:15.782Z,0
2022-10-10T06:02:35.956Z,0
2022-10-10T06:08:58.796Z,5.62
2022-10-10T06:15:18.805Z,5.62
2022-10-10T06:21:42.085Z,5.62
2022-10-10T06:28:01.786Z,11.25
2022-10-10T06:34:24.814Z,11.25
2022-10-10T06:40:44.809Z,11.25
2022-10-10T06:47:07.812Z,16.88
2022-10-10T06:53:27.843Z,16.88
2022-10-10T06:59:50.831Z,16.88
2022-10-10T07:06:10.837Z,16.88
2022-10-10T07:12:39.586Z,22.5
2022-10-10T07:18:53.839Z,22.5
2022-10-10T07:25:16.791Z,28.12
2022-10-10T07:31:36.815Z,28.12
2022-10-10T07:37:59.787Z,33.75
2022-10-10T07:44:19.778Z,33.75
2022-10-10T07:50:42.803Z,39.38
2022-10-10T07:57:02.895Z,39.38
2022-10-10T08:03:25.791Z,45
2022-10-10T08:09:45.762Z,45
2022-10-10T08:16:08.822Z,50.62
2022-10-10T08:39:51.320Z,50.62
2022-10-10T08:46:10.752Z,50.62
2022-10-10T08:52:33.774Z,45
2022-10-10T08:58:53.791Z,39.38
2022-10-10T09:05:16.966Z,39.38
2022-10-10T09:11:36.803Z,45
2022-10-10T09:17:59.783Z,45
2022-10-10T09:24:19.816Z,45
2022-10-10T09:30:42.744Z,50.62
2022-10-10T09:37:02.764Z,61.88
2022-10-10T09:43:25.782Z,67.5
2022-10-10T09:49:45.759Z,67.5
2022-10-10T09:56:08.795Z,73.12
2022-10-10T10:02:28.753Z,73.12
2022-10-10T10:08:51.770Z,78.75
2022-10-10T10:15:11.762Z,78.75
2022-10-10T10:21:34.975Z,84.38
2022-10-10T10:27:54.751Z,90
2022-10-10T10:34:18.047Z,101.25
2022-10-10T10:40:37.777Z,106.88
2022-10-10T10:47:00.733Z,78.75
2022-10-10T10:53:20.814Z,90
2022-10-10T11:00:21.207Z,101.25
2022-10-10T11:06:03.846Z,106.88
2022-10-10T11:12:26.817Z,90
2022-10-10T11:18:46.745Z,84.38
2022-10-10T11:25:09.780Z,90
2022-10-10T11:31:29.768Z,73.12
2022-10-10T11:37:52.749Z,73.12
2022-10-10T11:44:12.805Z,101.25
2022-10-10T11:50:35.877Z,95.62
2022-10-10T11:56:55.798Z,129.38
2022-10-10T12:03:18.742Z,95.62
2022-10-10T12:09:38.839Z,90
2022-10-10T12:16:02.014Z,73.12
2022-10-10T12:22:21.762Z,84.38
2022-10-10T12:28:44.917Z,73.12
2022-10-10T12:35:04.867Z,101.25
2022-10-10T12:41:27.768Z,84.38
2022-10-10T12:48:04.805Z,78.75
2022-10-10T12:54:10.795Z,73.12
2022-10-10T13:00:30.747Z,67.5
2022-10-10T13:06:53.785Z,56.25
2022-10-10T13:13:13.759Z,61.88
2022-10-10T13:19:36.811Z,67.5
2022-10-10T13:25:56.810Z,67.5
2022-10-10T13:32:19.743Z,50.62
2022-10-10T13:38:39.764Z,39.38
2022-10-10T14:01:45.862Z,56.25
2022-10-10T14:08:08.785Z,45
2022-10-10T14:14:28.773Z,33.75
2022-10-10T14:20:51.848Z,33.75
2022-10-10T14:27:11.775Z,33.75
2022-10-10T14:33:34.733Z,50.62
2022-10-10T14:39:54.776Z,73.12
2022-10-10T14:46:17.803Z,45
2022-10-10T14:52:37.785Z,33.75
2022-10-10T14:59:00.830Z,28.12
2022-10-10T15:05:20.736Z,22.5
2022-10-10T15:11:43.795Z,16.88
2022-10-10T15:18:03.769Z,16.88
2022-10-10T15:24:26.733Z,11.25
2022-10-10T15:30:46.770Z,11.25
2022-10-10T15:37:09.801Z,5.62
2022-10-10T15:43:29.781Z,5.62
2022-10-10T15:49:52.749Z,5.62
2022-10-10T15:56:12.813Z,5.62
2022-10-10T16:02:35.768Z,5.62
2022-10-10T16:09:10.321Z,0
2022-10-10T16:15:18.802Z,0
2022-10-10T16:21:39.972Z,0
2022-10-10T16:28:02.792Z,0
2022-10-10T16:34:22.757Z,0
2022-10-10T16:40:45.749Z,0
2022-10-10T16:47:05.801Z,0
2022-10-10T16:53:28.831Z,0
2022-10-10T16:59:48.798Z,0
2022-10-10T17:06:11.740Z,0
2022-10-10T17:12:31.886Z,0
2022-10-10T17:18:54.748Z,0
2022-10-10T17:25:14.765Z,0
2022-10-10T17:31:37.779Z,0
2022-10-10T17:37:57.766Z,0
2022-10-10T17:44:20.813Z,0
2022-10-10T17:50:40.760Z,0
2022-10-10T17:57:03.795Z,0
2022-10-10T18:03:23.766Z,0
2022-10-10T18:09:46.786Z,0
2022-10-10T18:16:07.418Z,0
2022-10-10T18:22:29.769Z,0
2022-10-10T18:28:49.863Z,0
2022-10-10T18:35:12.816Z,0
2022-10-10T18:41:32.781Z,0
2022-10-10T18:47:56.111Z,0
2022-10-10T19:11:19.280Z,0
2022-10-10T19:17:38.743Z,0
2022-10-10T19:24:01.786Z,0
2022-10-10T19:30:21.759Z,0
2022-10-10T19:36:44.747Z,0
2022-10-10T19:43:04.777Z,0
2022-10-10T19:49:27.760Z,0
2022-10-10T19:55:47.785Z,0
2022-10-10T20:02:10.776Z,0
2022-10-10T20:08:30.860Z,0
2022-10-10T20:14:53.914Z,0
2022-10-10T20:21:16.419Z,0
2022-10-10T20:27:36.841Z,0
2022-10-10T20:33:56.770Z,0
2022-10-10T20:40:19.779Z,0
2022-10-10T20:46:39.843Z,0
2022-10-10T20:53:02.763Z,0
2022-10-10T20:59:22.803Z,0
2022-10-10T21:05:45.849Z,0
2022-10-10T21:12:05.795Z,0
2022-10-10T21:18:28.796Z,0
2022-10-10T21:24:48.794Z,0
2022-10-10T21:31:11.832Z,0
2022-10-10T21:37:31.738Z,0
2022-10-10T21:43:54.861Z,0
2022-10-10T21:50:14.800Z,0
2022-10-10T21:56:37.784Z,0
2022-10-10T22:20:51.748Z,0
2022-10-10T22:27:11.750Z,0
2022-10-10T22:33:34.752Z,0
2022-10-10T22:39:54.816Z,0
2022-10-10T22:46:17.867Z,0
2022-10-10T22:52:37.790Z,0
2022-10-10T22:59:00.816Z,0
2022-10-10T23:05:20.912Z,0
2022-10-10T23:11:43.798Z,0
2022-10-10T23:18:03.840Z,0
2022-10-10T23:24:26.742Z,0
2022-10-10T23:30:46.848Z,0
2022-10-10T23:37:09.836Z,0
2022-10-10T23:43:29.810Z,0
2022-10-10T23:49:52.821Z,0
2022-10-10T23:56:12.815Z,0
